South Mason Valley, Nevada Weather observations

Data are for 10 minute period ending at time listed.
 Day   Time   Solar   Ave.   Ave.  Ave.  Vector  Max.   Baro.   Total    
  of    of     Rad.   Air    Rel.  Wind   Wind   Wind  Press.  Precip.   
Year   Day            Temp.  Hum.  Speed  Dir.   Gust                    
2015   (PST)  Kw/m2    F      %     mph   deg.    mph    mb.     in.     
-------------------------------------------------------------------------
  88    8:50   0.55   54.0    20    5.1     6     8.4   885.8    0.00 
  88    9:00   0.58   54.6    20    5.0     5     8.0   885.8    0.00 
  88    9:10   0.60   56.1    19    4.5   333     7.5   885.8    0.00 
  88    9:20   0.63   56.9    19    3.9   349     6.9   885.8    0.00 
  88    9:30   0.65   57.2    18    4.2    15     7.9   885.8    0.00 
  88    9:40   0.68   58.0    16    3.8    32     8.3   885.7    0.00 
  88    9:50   0.70   59.5    14    3.1    66     7.1   885.6    0.00 
  88   10:00   0.72   60.3    14    2.5    58     6.6   885.6    0.00 
  88   10:10   0.74   61.5    14    2.3   339     5.6   885.6    0.00 
  88   10:20   0.75   62.1    14    2.4   293     6.2   885.5    0.00 
  88   10:30   0.77   62.0    14    3.0    19     7.7   885.4    0.00 
  88   10:40   0.78   62.3    14    4.2    41     7.5   885.4    0.00 
  88   10:50   0.80   63.0    13    2.6    68     5.9   885.3    0.00 
  88   11:00   0.81   63.6    13    3.5    25     7.9   885.2    0.00 
  88   11:10   0.82   65.1    12    2.3    66     7.9   885.0    0.00 
  88   11:20   0.82   64.6    11    2.2    48     5.8   885.0    0.00 
  88   11:30   0.83   65.8    11    2.8     4     7.6   885.0    0.00 
  88   11:40   0.83   65.4    12    3.3   358     8.2   884.9    0.00 
  88   11:50   0.84   66.3    11    2.6     5     6.4   884.8    0.00 
  88   12:00   0.84   66.7    11    3.7    56     9.9   884.7    0.00 
  88   12:10   0.84   66.5    11    3.5    36     6.9   884.5    0.00 
  88   12:20   0.83   67.4    11    3.7    83     9.0   884.4    0.00 
  88   12:30   0.83   68.3    10    2.7   172     6.6   884.2    0.00 
  88   12:40   0.82   68.8    12    5.0    39     9.6   884.1    0.00 
  88   12:50   0.81   68.1    11    5.0    19     9.3   883.9    0.00 
  88   13:00   0.80   69.0    11    5.4    33    11.4   883.8    0.00 
  88   13:10   0.79   68.9    11    7.9    30    13.4   883.6    0.00 
  88   13:20   0.78   69.1    12    7.0     7    13.2   883.4    0.00 
  88   13:30   0.77   69.2    11    6.7    25    12.3   883.3    0.00 
  88   13:40   0.75   70.0    10    4.8    35    11.0   883.1    0.00 
  88   13:50   0.73   69.4    11    7.0    22    11.2   882.9    0.00 
  88   14:00   0.72   70.3    10    5.7    52    11.6   882.8    0.00 
  88   14:10   0.70   70.3    10    5.0    35    10.5   882.6    0.00 
  88   14:20   0.68   71.0    10    6.1    19    10.6   882.6    0.00 
  88   14:30   0.65   70.8    11    6.3    18    10.9   882.4    0.00 
  88   14:40   0.59   71.2    10    5.2    42     9.1   882.3    0.00 
  88   14:50   0.60   71.4    10    7.6    28    12.5   882.2    0.00 
  88   15:00   0.58   71.0    10    6.9    14    11.2   882.1    0.00 
  88   15:10   0.55   72.2     9    4.8    60     9.1   882.1    0.00 
  88   15:20   0.52   71.9    11    6.5    12    10.2   882.0    0.00 
  88   15:30   0.49   71.8    10    5.6    23     9.6   881.8    0.00 
  88   15:40   0.46   71.5    10    6.5    11    11.5   881.8    0.00 
  88   15:50   0.40   71.9    10    5.0     4     9.9   881.8    0.00 
  88   16:00   0.39   71.9    11    4.9    11     9.9   881.7    0.00 
  88   16:10   0.36   72.1    10    5.3    34     9.1   881.5    0.00 
  88   16:20   0.33   71.6    10    5.2    24     9.6   881.5    0.00 
  88   16:30   0.30   71.6    10    5.9    42    11.6   881.5    0.00 
  88   16:40   0.27   71.2    10    7.5    12    11.1   881.4    0.00 
  88   16:50   0.23   70.9    10    6.2    22    10.2   881.3    0.00 
  88   17:00   0.20   70.7    10    6.2    21     9.7   881.3    0.00 
  88   17:10   0.17   70.5    10    5.3    22     8.0   881.3    0.00 
  88   17:20   0.14   69.8    11    6.4     0     9.5   881.3    0.00 
  88   17:30   0.11   68.5    12    4.8    12     7.3   881.3    0.00 
  88   17:40   0.09   68.2    11    5.2    16     8.2   881.3    0.00 
  88   17:50   0.06   67.2    12    4.5    13     6.4   881.2    0.00 
  88   18:00   0.04   65.6    12    4.5    12     6.1   881.1    0.00 
  88   18:10   0.02   64.9    12    3.0    12     4.9   881.0    0.00 
  88   18:20   0.01   64.2    11    2.8   352     3.4   881.0    0.00 
  88   18:30   0.00   64.6    10    2.0   344     2.8   880.9    0.00 
  88   18:40   0.00   64.4    10    1.7   322     2.3   880.8    0.00 
  88   18:50   0.00   62.5    12    1.1   308     1.6   880.9    0.00 
  88   19:00   0.00   61.1    12    3.4   290     4.2   881.0    0.00 
  88   19:10   0.00   58.4    14    4.1   275     5.0   881.2    0.00 
  88   19:20   0.00   57.1    14    4.4   277     5.6   881.3    0.00 
  88   19:30   0.00   57.4    14    4.0   278     4.5   881.4    0.00 
  88   19:40   0.00   58.6    12    4.2   278     4.5   881.4    0.00 
  88   19:50   0.00   57.9    13    4.0   276     4.5   881.5    0.00 
  88   20:00   0.00   54.8    17    3.8   287     4.3   881.6    0.00 
  88   20:10   0.00   51.9    20    3.1   287     4.2   881.7    0.00 
  88   20:20   0.00   50.8    20    2.6   301     3.2   881.8    0.00 
  88   20:30   0.00   51.5    18    2.1   304     4.2   881.9    0.00 
  88   20:40   0.00   50.1    20    4.0   339     5.1   882.1    0.00 
  88   20:50   0.00   49.5    21    3.1   337     4.5   882.1    0.00 
  88   21:00   0.00   50.5    19    2.9   303     4.2   882.2    0.00 
  88   21:10   0.00   50.9    20    5.6   296     6.6   882.3    0.00 
  88   21:20   0.00   48.8    22    6.4   299     7.1   882.4    0.00 
  88   21:30   0.00   48.8    24    5.0   311     7.2   882.5    0.00 
  88   21:40   0.00   50.1    24    5.3   324     8.2   882.6    0.00 
  88   21:50   0.00   52.6    22    6.1   321     9.0   882.6    0.00 
  88   22:00   0.00   51.5    23    5.7   323     7.3   882.6    0.00 
  88   22:10   0.00   50.8    24    4.7   320     7.0   882.5    0.00 
  88   22:20   0.00   48.9    27    3.1   317     5.0   882.5    0.00 
  88   22:30   0.00   48.6    27    3.6   297     4.8   882.5    0.00 
  88   22:40   0.00   47.8    28    3.4   293     4.4   882.5    0.00 
  88   22:50   0.00   46.9    28    2.2   284     3.6   882.4    0.00 
  88   23:00   0.00   47.2    27    1.9   284     3.0   882.4    0.00 
  88   23:10   0.00   47.9    26    2.1   298     3.5   882.4    0.00 
  88   23:20   0.00   45.3    29    0.4    95     2.3   882.5    0.00 
  88   23:30   0.00   44.5    31    0.0     0     0.0   882.5    0.00 
  88   23:40   0.00   43.4    32    1.6   160     2.6   882.6    0.00 
  88   23:50   0.00   44.0    31    1.3   195     5.8   882.6    0.00 
  89    0:00   0.00   44.5    31    0.3   222     1.2   882.6    0.00 
  89    0:10   0.00   45.6    29    0.5   250     1.5   882.6    0.00 
  89    0:20   0.00   43.4    31    1.1   154     2.3   882.6    0.00 
  89    0:30   0.00   41.4    35    0.7   142     1.3   882.6    0.00 
  89    0:40   0.00   43.6    32    0.0   142     0.4   882.6    0.00 
  89    0:50   0.00   44.8    30    0.0     0     0.0   882.6    0.00 
  89    1:00   0.00   41.2    32    2.7   112     4.5   882.6    0.00 
  89    1:10   0.00   38.1    40    2.7   163     3.9   882.6    0.00 
  89    1:20   0.00   37.7    38    1.9   212     2.8   882.5    0.00 
  89    1:30   0.00   38.3    38    1.1   196     1.6   882.4    0.00 
  89    1:40   0.00   39.0    38    1.4   218     1.8   882.4    0.00 
  89    1:50   0.00   39.8    37    3.1   287     5.9   882.5    0.00 
  89    2:00   0.00   39.1    38    2.9   300     5.8   882.5    0.00 
  89    2:10   0.00   39.3    36    2.6   297     5.2   882.5    0.00 
  89    2:20   0.00   38.8    37    2.3   299     2.7   882.5    0.00 
  89    2:30   0.00   39.6    37    2.2   296     3.4   882.4    0.00 
  89    2:40   0.00   39.3    37    1.7   319     2.4   882.4    0.00 
  89    2:50   0.00   37.8    38    1.7    27     4.3   882.4    0.00 
  89    3:00   0.00   36.0    42    4.2   337     5.2   882.5    0.00 
  89    3:10   0.00   36.5    44    2.3   346     3.9   882.4    0.00 
  89    3:20   0.00   35.7    43    1.8    96     2.5   882.4    0.00 
  89    3:30   0.00   36.7    42    1.8    97     2.9   882.4    0.00 
  89    3:40   0.00   35.9    44    1.4   162     2.3   882.4    0.00 
  89    3:50   0.00   34.6    48    2.8     6     6.6   882.4    0.00 
  89    4:00   0.00   36.5    44    2.7    38     3.9   882.5    0.00 
  89    4:10   0.00   35.3    46    0.1     1     1.2   882.4    0.00 
  89    4:20   0.00   35.1    47    1.1    19     2.4   882.4    0.00 
  89    4:30   0.00   36.5    44    0.7    30     2.0   882.5    0.00 
  89    4:40   0.00   37.0    42    1.6   100     3.4   882.6    0.00 
  89    4:50   0.00   36.5    42    2.1   107     3.8   882.7    0.00 
  89    5:00   0.00   34.2    48    1.8   169     3.1   882.8    0.00 
  89    5:10   0.00   33.2    48    1.9   197     3.9   882.8    0.00 
  89    5:20   0.00   33.9    44    0.7   179     3.4   882.8    0.00 
  89    5:30   0.00   35.5    42    0.6   152     1.2   882.9    0.00 
  89    5:40   0.00   37.0    39    0.4   340     1.2   883.0    0.00 
  89    5:50   0.01   37.0    38    1.4     8     2.6   883.1    0.00 
  89    6:00   0.03   36.9    38    2.8   354     3.4   883.2    0.00 
  89    6:10   0.05   36.5    39    2.7    80     4.0   883.3    0.00 
  89    6:20   0.08   39.1    34    1.8    73     2.4   883.4    0.00 
  89    6:30   0.11   41.2    37    0.3    47     1.2   883.4    0.00 
  89    6:40   0.11   41.7    40    0.5   352     1.3   883.4    0.00 
  89    6:50   0.08   42.4    37    0.2   344     1.2   883.4    0.00 
  89    7:00   0.14   42.9    41    1.5   277     2.3   883.5    0.00 
  89    7:10   0.21   44.0    43    1.0   302     2.0   883.6    0.00 
  89    7:20   0.27   48.3    32    1.6   161     3.1   883.6    0.00 
  89    7:30   0.30   50.8    25    2.1   164     3.1   883.7    0.00 
  89    7:40   0.33   52.4    23    1.1   159     2.6   883.6    0.00 
  89    7:50   0.36   54.1    22    0.9    31     1.8   883.5    0.00 
  89    8:00   0.40   56.1    22    0.2   295     1.6   883.4    0.00 
  89    8:10   0.43   59.6    18    0.9   147     2.7   883.3    0.00 
  89    8:20   0.46   61.1    16    0.7   169     2.1   883.1    0.00 
  89    8:30   0.49   61.9    16    1.6   183     3.8   883.1    0.00 
  89    8:40   0.52   62.9    16    1.2   169     3.1   883.2    0.00 

Return to south Mason Valley graphs page.


Western Regional Climate Center,wrcc@dri.edu